sensor_id;sensor_type;location;lat;lon;timestamp;temperature;humidity
1626;DHT22;806;48.770;9.156;2022-12-16T00:00:24;-0.20;99.90
1626;DHT22;806;48.770;9.156;2022-12-16T00:02:51;-0.10;99.90
1626;DHT22;806;48.770;9.156;2022-12-16T00:05:20;-0.10;99.90
1626;DHT22;806;48.770;9.156;2022-12-16T00:07:47;-0.10;99.90
1626;DHT22;806;48.770;9.156;2022-12-16T00:10:14;0.00;99.90
1626;DHT22;806;48.770;9.156;2022-12-16T00:12:41;0.00;99.90
1626;DHT22;806;48.770;9.156;2022-12-16T00:15:08;0.00;99.90
1626;DHT22;806;48.770;9.156;2022-12-16T00:17:35;0.00;99.90
1626;DHT22;806;48.770;9.156;2022-12-16T00:20:04;0.00;99.90
1626;DHT22;806;48.770;9.156;2022-12-16T00:22:33;0.10;99.90
1626;DHT22;806;48.770;9.156;2022-12-16T00:25:00;0.10;99.90
1626;DHT22;806;48.770;9.156;2022-12-16T00:27:27;0.20;99.90
1626;DHT22;806;48.770;9.156;2022-12-16T00:29:53;0.20;99.90
1626;DHT22;806;48.770;9.156;2022-12-16T00:32:20;0.00;99.90
1626;DHT22;806;48.770;9.156;2022-12-16T00:34:47;-0.10;99.90
1626;DHT22;806;48.770;9.156;2022-12-16T00:37:14;0.10;99.90
1626;DHT22;806;48.770;9.156;2022-12-16T00:39:42;0.00;99.90
1626;DHT22;806;48.770;9.156;2022-12-16T00:42:09;-0.10;99.90
1626;DHT22;806;48.770;9.156;2022-12-16T00:44:37;-0.20;99.90
1626;DHT22;806;48.770;9.156;2022-12-16T00:47:03;-0.30;99.90
1626;DHT22;806;48.770;9.156;2022-12-16T00:49:30;-0.20;99.90
1626;DHT22;806;48.770;9.156;2022-12-16T00:51:57;-0.20;99.90
1626;DHT22;806;48.770;9.156;2022-12-16T00:54:24;-0.20;99.90
1626;DHT22;806;48.770;9.156;2022-12-16T00:56:52;-0.20;99.90
1626;DHT22;806;48.770;9.156;2022-12-16T00:59:20;-0.20;99.90
1626;DHT22;806;48.770;9.156;2022-12-16T01:01:47;-0.10;99.90
1626;DHT22;806;48.770;9.156;2022-12-16T01:04:16;0.10;99.90
1626;DHT22;806;48.770;9.156;2022-12-16T01:06:43;0.20;99.90
1626;DHT22;806;48.770;9.156;2022-12-16T01:09:10;0.30;99.90
1626;DHT22;806;48.770;9.156;2022-12-16T01:11:36;-0.10;99.90
1626;DHT22;806;48.770;9.156;2022-12-16T01:14:05;-0.20;99.90
1626;DHT22;806;48.770;9.156;2022-12-16T01:16:31;-0.30;99.90
1626;DHT22;806;48.770;9.156;2022-12-16T01:18:59;-0.30;99.90
1626;DHT22;806;48.770;9.156;2022-12-16T01:21:26;-0.10;99.90
1626;DHT22;806;48.770;9.156;2022-12-16T01:23:53;-0.10;99.90
1626;DHT22;806;48.770;9.156;2022-12-16T01:26:20;-0.10;99.90
1626;DHT22;806;48.770;9.156;2022-12-16T01:28:47;0.00;99.90
1626;DHT22;806;48.770;9.156;2022-12-16T01:31:17;-0.10;99.90
1626;DHT22;806;48.770;9.156;2022-12-16T01:33:44;-0.20;99.90
1626;DHT22;806;48.770;9.156;2022-12-16T01:36:11;-0.30;99.90
1626;DHT22;806;48.770;9.156;2022-12-16T01:38:38;-0.20;99.90
1626;DHT22;806;48.770;9.156;2022-12-16T01:41:08;-0.10;99.90
1626;DHT22;806;48.770;9.156;2022-12-16T01:43:37;-0.20;99.90
1626;DHT22;806;48.770;9.156;2022-12-16T01:46:07;-0.30;99.90
1626;DHT22;806;48.770;9.156;2022-12-16T01:48:41;-0.10;99.90
1626;DHT22;806;48.770;9.156;2022-12-16T01:51:13;0.00;99.90
1626;DHT22;806;48.770;9.156;2022-12-16T01:53:42;0.00;99.90
1626;DHT22;806;48.770;9.156;2022-12-16T01:56:12;-0.10;99.90
1626;DHT22;806;48.770;9.156;2022-12-16T01:58:42;-0.10;99.90
1626;DHT22;806;48.770;9.156;2022-12-16T02:01:09;0.20;99.90
1626;DHT22;806;48.770;9.156;2022-12-16T02:03:38;0.20;99.90
1626;DHT22;806;48.770;9.156;2022-12-16T02:06:05;0.00;99.90
1626;DHT22;806;48.770;9.156;2022-12-16T02:08:33;-0.10;99.90
1626;DHT22;806;48.770;9.156;2022-12-16T02:11:16;0.00;99.90
1626;DHT22;806;48.770;9.156;2022-12-16T02:14:09;0.00;99.90
1626;DHT22;806;48.770;9.156;2022-12-16T02:16:46;0.00;99.90
1626;DHT22;806;48.770;9.156;2022-12-16T02:22:26;0.10;99.90
1626;DHT22;806;48.770;9.156;2022-12-16T02:25:26;0.10;99.90
1626;DHT22;806;48.770;9.156;2022-12-16T02:28:02;0.10;99.90
1626;DHT22;806;48.770;9.156;2022-12-16T02:30:56;0.10;99.90
1626;DHT22;806;48.770;9.156;2022-12-16T02:33:50;0.10;99.90
1626;DHT22;806;48.770;9.156;2022-12-16T02:36:25;0.00;99.90
1626;DHT22;806;48.770;9.156;2022-12-16T02:38:58;0.10;99.90
1626;DHT22;806;48.770;9.156;2022-12-16T02:41:32;0.20;99.90
1626;DHT22;806;48.770;9.156;2022-12-16T02:44:04;0.20;99.90
1626;DHT22;806;48.770;9.156;2022-12-16T02:46:39;0.10;99.90
1626;DHT22;806;48.770;9.156;2022-12-16T02:49:07;0.10;99.90
1626;DHT22;806;48.770;9.156;2022-12-16T02:51:36;0.20;99.90
1626;DHT22;806;48.770;9.156;2022-12-16T02:54:04;0.20;99.90
1626;DHT22;806;48.770;9.156;2022-12-16T02:56:44;0.30;99.90
1626;DHT22;806;48.770;9.156;2022-12-16T02:59:17;0.30;99.90
1626;DHT22;806;48.770;9.156;2022-12-16T03:01:54;0.30;99.90
1626;DHT22;806;48.770;9.156;2022-12-16T03:04:26;0.40;99.90
1626;DHT22;806;48.770;9.156;2022-12-16T03:06:55;0.10;99.90
1626;DHT22;806;48.770;9.156;2022-12-16T03:09:25;-0.10;99.90
1626;DHT22;806;48.770;9.156;2022-12-16T03:11:54;-0.10;99.90
1626;DHT22;806;48.770;9.156;2022-12-16T03:14:24;-0.30;99.90
1626;DHT22;806;48.770;9.156;2022-12-16T03:16:53;-0.40;99.90
1626;DHT22;806;48.770;9.156;2022-12-16T03:19:22;-0.30;99.90
1626;DHT22;806;48.770;9.156;2022-12-16T03:21:54;-0.20;99.90
1626;DHT22;806;48.770;9.156;2022-12-16T03:24:26;-0.10;99.90
1626;DHT22;806;48.770;9.156;2022-12-16T03:26:57;0.00;99.90
1626;DHT22;806;48.770;9.156;2022-12-16T03:29:35;0.10;99.90
1626;DHT22;806;48.770;9.156;2022-12-16T03:32:10;0.10;99.90
1626;DHT22;806;48.770;9.156;2022-12-16T03:34:41;-0.20;99.90
1626;DHT22;806;48.770;9.156;2022-12-16T03:37:11;-0.60;99.90
1626;DHT22;806;48.770;9.156;2022-12-16T03:39:41;-0.60;99.90
1626;DHT22;806;48.770;9.156;2022-12-16T03:42:10;-0.30;99.90
1626;DHT22;806;48.770;9.156;2022-12-16T03:44:38;-0.20;99.90
1626;DHT22;806;48.770;9.156;2022-12-16T03:47:06;-0.20;99.90
1626;DHT22;806;48.770;9.156;2022-12-16T03:49:33;-0.20;99.90
1626;DHT22;806;48.770;9.156;2022-12-16T03:52:00;-0.30;99.90
1626;DHT22;806;48.770;9.156;2022-12-16T03:54:27;-0.40;99.90
1626;DHT22;806;48.770;9.156;2022-12-16T03:56:54;-0.30;99.90
1626;DHT22;806;48.770;9.156;2022-12-16T03:59:21;-0.30;99.90
1626;DHT22;806;48.770;9.156;2022-12-16T04:01:48;-0.30;99.90
1626;DHT22;806;48.770;9.156;2022-12-16T04:04:17;-0.20;99.90
1626;DHT22;806;48.770;9.156;2022-12-16T04:06:44;-0.20;99.90
1626;DHT22;806;48.770;9.156;2022-12-16T04:09:31;0.00;99.90
1626;DHT22;806;48.770;9.156;2022-12-16T04:11:58;0.00;99.90
1626;DHT22;806;48.770;9.156;2022-12-16T04:14:42;-0.20;99.90
1626;DHT22;806;48.770;9.156;2022-12-16T04:17:26;-0.20;99.90
1626;DHT22;806;48.770;9.156;2022-12-16T04:20:15;-0.10;99.90
1626;DHT22;806;48.770;9.156;2022-12-16T04:23:00;-0.10;99.90
1626;DHT22;806;48.770;9.156;2022-12-16T04:25:44;0.00;99.90
1626;DHT22;806;48.770;9.156;2022-12-16T04:28:12;0.00;99.90
1626;DHT22;806;48.770;9.156;2022-12-16T04:30:39;0.00;99.90
1626;DHT22;806;48.770;9.156;2022-12-16T04:33:08;0.10;99.90
1626;DHT22;806;48.770;9.156;2022-12-16T04:35:54;0.10;99.90
1626;DHT22;806;48.770;9.156;2022-12-16T04:38:39;0.20;99.90
1626;DHT22;806;48.770;9.156;2022-12-16T04:41:23;0.20;99.90
1626;DHT22;806;48.770;9.156;2022-12-16T04:44:07;0.30;99.90
1626;DHT22;806;48.770;9.156;2022-12-16T04:46:52;0.30;99.90
1626;DHT22;806;48.770;9.156;2022-12-16T04:49:36;0.10;99.90
1626;DHT22;806;48.770;9.156;2022-12-16T04:52:22;0.00;99.90
1626;DHT22;806;48.770;9.156;2022-12-16T04:55:20;-0.20;99.90
1626;DHT22;806;48.770;9.156;2022-12-16T04:58:05;-0.30;99.90
1626;DHT22;806;48.770;9.156;2022-12-16T05:00:50;-0.30;99.90
1626;DHT22;806;48.770;9.156;2022-12-16T05:03:35;-0.30;99.90
1626;DHT22;806;48.770;9.156;2022-12-16T05:06:19;-0.40;99.90
1626;DHT22;806;48.770;9.156;2022-12-16T05:09:06;-0.20;99.90
1626;DHT22;806;48.770;9.156;2022-12-16T05:11:50;-0.20;99.90
1626;DHT22;806;48.770;9.156;2022-12-16T05:14:35;-0.10;99.90
1626;DHT22;806;48.770;9.156;2022-12-16T05:17:20;-0.20;99.90
1626;DHT22;806;48.770;9.156;2022-12-16T05:20:06;-0.20;99.90
1626;DHT22;806;48.770;9.156;2022-12-16T05:22:50;-0.30;99.90
1626;DHT22;806;48.770;9.156;2022-12-16T05:25:36;-0.20;99.90
1626;DHT22;806;48.770;9.156;2022-12-16T05:28:21;-0.10;99.90
1626;DHT22;806;48.770;9.156;2022-12-16T05:31:05;-0.20;99.90
1626;DHT22;806;48.770;9.156;2022-12-16T05:33:49;-0.30;99.90
1626;DHT22;806;48.770;9.156;2022-12-16T05:36:33;-0.30;99.90
1626;DHT22;806;48.770;9.156;2022-12-16T05:39:18;-0.40;99.90
1626;DHT22;806;48.770;9.156;2022-12-16T05:42:03;-0.30;99.90
1626;DHT22;806;48.770;9.156;2022-12-16T05:44:47;-0.20;99.90
1626;DHT22;806;48.770;9.156;2022-12-16T05:47:31;-0.30;99.90
1626;DHT22;806;48.770;9.156;2022-12-16T05:50:16;-0.20;99.90
1626;DHT22;806;48.770;9.156;2022-12-16T05:53:00;-0.10;99.90
1626;DHT22;806;48.770;9.156;2022-12-16T05:55:44;0.10;99.90
1626;DHT22;806;48.770;9.156;2022-12-16T05:58:30;0.00;99.90
1626;DHT22;806;48.770;9.156;2022-12-16T06:01:14;0.10;99.90
1626;DHT22;806;48.770;9.156;2022-12-16T06:03:59;0.00;99.90
1626;DHT22;806;48.770;9.156;2022-12-16T06:06:43;0.00;99.90
1626;DHT22;806;48.770;9.156;2022-12-16T06:09:27;-0.10;99.90
1626;DHT22;806;48.770;9.156;2022-12-16T06:12:12;0.10;99.90
1626;DHT22;806;48.770;9.156;2022-12-16T06:14:57;0.10;99.90
1626;DHT22;806;48.770;9.156;2022-12-16T06:17:42;0.20;99.90
1626;DHT22;806;48.770;9.156;2022-12-16T06:20:27;0.10;99.90
1626;DHT22;806;48.770;9.156;2022-12-16T06:23:07;0.00;99.90
1626;DHT22;806;48.770;9.156;2022-12-16T06:25:52;0.10;99.90
1626;DHT22;806;48.770;9.156;2022-12-16T06:28:36;0.20;99.90
1626;DHT22;806;48.770;9.156;2022-12-16T06:31:22;0.10;99.90
1626;DHT22;806;48.770;9.156;2022-12-16T06:34:06;0.00;99.90
1626;DHT22;806;48.770;9.156;2022-12-16T06:36:50;0.00;99.90
1626;DHT22;806;48.770;9.156;2022-12-16T06:39:34;0.10;99.90
1626;DHT22;806;48.770;9.156;2022-12-16T06:42:18;0.00;99.90
1626;DHT22;806;48.770;9.156;2022-12-16T06:45:02;-0.10;99.90
1626;DHT22;806;48.770;9.156;2022-12-16T06:47:48;-0.10;99.90
1626;DHT22;806;48.770;9.156;2022-12-16T06:50:33;-0.20;99.90
1626;DHT22;806;48.770;9.156;2022-12-16T06:53:17;-0.10;99.90
1626;DHT22;806;48.770;9.156;2022-12-16T06:56:01;0.00;99.90
1626;DHT22;806;48.770;9.156;2022-12-16T06:58:45;-0.10;99.90
1626;DHT22;806;48.770;9.156;2022-12-16T07:01:29;-0.20;99.90
1626;DHT22;806;48.770;9.156;2022-12-16T07:04:15;0.00;99.90
1626;DHT22;806;48.770;9.156;2022-12-16T07:06:59;0.10;99.90
1626;DHT22;806;48.770;9.156;2022-12-16T07:09:43;0.20;99.90
1626;DHT22;806;48.770;9.156;2022-12-16T07:12:28;0.10;99.90
1626;DHT22;806;48.770;9.156;2022-12-16T07:15:13;-0.10;99.90
1626;DHT22;806;48.770;9.156;2022-12-16T07:17:57;-0.10;99.90
1626;DHT22;806;48.770;9.156;2022-12-16T07:20:42;0.00;99.90
1626;DHT22;806;48.770;9.156;2022-12-16T07:23:27;-0.10;99.90
1626;DHT22;806;48.770;9.156;2022-12-16T07:26:11;-0.20;99.90
1626;DHT22;806;48.770;9.156;2022-12-16T07:28:55;-0.20;99.90
1626;DHT22;806;48.770;9.156;2022-12-16T07:31:40;-0.30;99.90
1626;DHT22;806;48.770;9.156;2022-12-16T07:34:24;-0.20;99.90
1626;DHT22;806;48.770;9.156;2022-12-16T07:37:12;-0.10;99.90
1626;DHT22;806;48.770;9.156;2022-12-16T07:39:56;0.00;99.90
1626;DHT22;806;48.770;9.156;2022-12-16T07:42:40;0.10;99.90
1626;DHT22;806;48.770;9.156;2022-12-16T07:45:24;0.20;99.90
1626;DHT22;806;48.770;9.156;2022-12-16T07:48:08;0.00;99.90
1626;DHT22;806;48.770;9.156;2022-12-16T07:50:52;0.00;99.90
1626;DHT22;806;48.770;9.156;2022-12-16T07:53:38;0.10;99.90
1626;DHT22;806;48.770;9.156;2022-12-16T07:56:22;0.10;99.90
1626;DHT22;806;48.770;9.156;2022-12-16T07:59:07;0.20;99.90
1626;DHT22;806;48.770;9.156;2022-12-16T08:01:51;0.30;99.90
1626;DHT22;806;48.770;9.156;2022-12-16T08:04:35;0.10;99.90
1626;DHT22;806;48.770;9.156;2022-12-16T08:07:19;0.00;99.90
1626;DHT22;806;48.770;9.156;2022-12-16T08:10:06;-0.10;99.90
1626;DHT22;806;48.770;9.156;2022-12-16T08:12:50;-0.10;99.90
1626;DHT22;806;48.770;9.156;2022-12-16T08:15:34;-0.10;99.90
1626;DHT22;806;48.770;9.156;2022-12-16T08:18:19;0.00;99.90
1626;DHT22;806;48.770;9.156;2022-12-16T08:21:03;0.00;99.90
1626;DHT22;806;48.770;9.156;2022-12-16T08:23:47;0.00;99.90
1626;DHT22;806;48.770;9.156;2022-12-16T08:26:33;0.00;99.90
1626;DHT22;806;48.770;9.156;2022-12-16T08:29:17;0.30;99.90
1626;DHT22;806;48.770;9.156;2022-12-16T08:32:01;0.30;99.90
1626;DHT22;806;48.770;9.156;2022-12-16T08:34:45;0.30;99.90
1626;DHT22;806;48.770;9.156;2022-12-16T08:37:29;0.40;99.90
1626;DHT22;806;48.770;9.156;2022-12-16T08:40:19;0.40;99.90
1626;DHT22;806;48.770;9.156;2022-12-16T08:43:05;0.40;99.90
1626;DHT22;806;48.770;9.156;2022-12-16T08:45:52;0.40;99.90
1626;DHT22;806;48.770;9.156;2022-12-16T08:48:40;0.30;99.90
1626;DHT22;806;48.770;9.156;2022-12-16T08:51:24;0.40;99.90
1626;DHT22;806;48.770;9.156;2022-12-16T08:54:09;0.60;99.90
1626;DHT22;806;48.770;9.156;2022-12-16T08:56:54;0.60;99.90
1626;DHT22;806;48.770;9.156;2022-12-16T08:59:39;0.60;99.90
1626;DHT22;806;48.770;9.156;2022-12-16T09:02:24;0.50;99.90
1626;DHT22;806;48.770;9.156;2022-12-16T09:05:08;0.40;99.90
1626;DHT22;806;48.770;9.156;2022-12-16T09:07:57;0.30;99.90
1626;DHT22;806;48.770;9.156;2022-12-16T09:10:42;0.50;99.90
1626;DHT22;806;48.770;9.156;2022-12-16T09:13:26;0.50;99.90
1626;DHT22;806;48.770;9.156;2022-12-16T09:16:11;0.50;99.90
1626;DHT22;806;48.770;9.156;2022-12-16T09:18:56;0.70;99.90
1626;DHT22;806;48.770;9.156;2022-12-16T09:21:40;0.70;99.90
1626;DHT22;806;48.770;9.156;2022-12-16T09:24:24;0.60;99.90
1626;DHT22;806;48.770;9.156;2022-12-16T09:27:09;0.30;99.90
1626;DHT22;806;48.770;9.156;2022-12-16T09:29:53;0.20;99.90
1626;DHT22;806;48.770;9.156;2022-12-16T09:32:41;-0.10;99.90
1626;DHT22;806;48.770;9.156;2022-12-16T09:35:26;-0.20;99.90
1626;DHT22;806;48.770;9.156;2022-12-16T09:38:13;0.20;99.90
1626;DHT22;806;48.770;9.156;2022-12-16T09:40:58;0.60;99.90
1626;DHT22;806;48.770;9.156;2022-12-16T09:43:55;0.80;99.90
1626;DHT22;806;48.770;9.156;2022-12-16T09:46:51;0.70;99.90
1626;DHT22;806;48.770;9.156;2022-12-16T09:49:45;0.50;99.90
1626;DHT22;806;48.770;9.156;2022-12-16T09:52:32;0.30;99.90
1626;DHT22;806;48.770;9.156;2022-12-16T09:55:22;0.50;99.90
1626;DHT22;806;48.770;9.156;2022-12-16T09:58:10;0.50;99.90
1626;DHT22;806;48.770;9.156;2022-12-16T10:00:56;0.60;99.90
1626;DHT22;806;48.770;9.156;2022-12-16T10:03:40;0.90;99.90
1626;DHT22;806;48.770;9.156;2022-12-16T10:06:35;1.10;99.90
1626;DHT22;806;48.770;9.156;2022-12-16T10:09:27;1.10;99.90
1626;DHT22;806;48.770;9.156;2022-12-16T10:12:29;1.00;99.90
1626;DHT22;806;48.770;9.156;2022-12-16T10:15:28;1.00;99.90
1626;DHT22;806;48.770;9.156;2022-12-16T10:18:28;1.30;99.90
1626;DHT22;806;48.770;9.156;2022-12-16T10:21:19;1.30;99.90
1626;DHT22;806;48.770;9.156;2022-12-16T10:24:10;1.50;99.90
1626;DHT22;806;48.770;9.156;2022-12-16T10:27:04;1.40;99.90
1626;DHT22;806;48.770;9.156;2022-12-16T10:29:51;1.50;99.90
1626;DHT22;806;48.770;9.156;2022-12-16T10:32:39;1.30;99.90
1626;DHT22;806;48.770;9.156;2022-12-16T10:35:27;1.00;99.90
1626;DHT22;806;48.770;9.156;2022-12-16T10:38:19;1.10;99.90
1626;DHT22;806;48.770;9.156;2022-12-16T10:41:06;0.90;99.90
1626;DHT22;806;48.770;9.156;2022-12-16T10:43:52;1.00;99.90
1626;DHT22;806;48.770;9.156;2022-12-16T10:46:37;1.10;99.90
1626;DHT22;806;48.770;9.156;2022-12-16T10:49:21;1.00;99.90
1626;DHT22;806;48.770;9.156;2022-12-16T10:52:08;1.10;99.90
1626;DHT22;806;48.770;9.156;2022-12-16T10:54:59;1.30;99.90
1626;DHT22;806;48.770;9.156;2022-12-16T10:57:57;1.40;99.90
1626;DHT22;806;48.770;9.156;2022-12-16T11:00:46;1.40;99.90
1626;DHT22;806;48.770;9.156;2022-12-16T11:03:32;1.50;99.90
1626;DHT22;806;48.770;9.156;2022-12-16T11:06:19;1.70;99.90
1626;DHT22;806;48.770;9.156;2022-12-16T11:09:17;1.50;99.90
1626;DHT22;806;48.770;9.156;2022-12-16T11:12:26;1.50;99.90
1626;DHT22;806;48.770;9.156;2022-12-16T11:15:24;1.50;99.90
1626;DHT22;806;48.770;9.156;2022-12-16T11:18:11;1.60;99.90
1626;DHT22;806;48.770;9.156;2022-12-16T11:21:12;1.60;99.90
